createdAt,value
2019-05-14T00:00:14.313Z,70.1869
2019-05-14T00:01:17.244Z,69.7124
2019-05-14T00:02:21.402Z,69.7017
2019-05-14T00:03:24.292Z,70.0038
2019-05-14T00:04:27.332Z,69.4865
2019-05-14T00:05:32.196Z,69.1310
2019-05-14T00:06:34.287Z,69.0074
2019-05-14T00:07:37.303Z,68.6717
2019-05-14T00:08:41.804Z,68.4947
2019-05-14T00:09:45.343Z,68.5725
2019-05-14T00:10:48.262Z,68.2368
2019-05-14T00:11:51.412Z,68.1498
2019-05-14T00:12:54.270Z,67.9728
2019-05-14T00:13:57.309Z,67.6280
2019-05-14T00:15:02.134Z,67.3762
2019-05-14T00:16:05.308Z,67.4281
2019-05-14T00:17:08.307Z,67.3259
2019-05-14T00:18:11.727Z,66.9596
2019-05-14T00:19:15.304Z,66.8406
2019-05-14T00:20:18.329Z,66.4149
2019-05-14T00:21:21.295Z,66.3661
2019-05-14T00:22:24.274Z,66.1784
2019-05-14T00:23:27.297Z,66.3066
2019-05-14T00:24:32.254Z,66.2638
2019-05-14T00:25:35.342Z,66.2684
2019-05-14T00:26:39.342Z,65.7755
2019-05-14T00:27:42.294Z,66.1692
2019-05-14T00:28:45.288Z,65.6870
2019-05-14T00:29:48.317Z,65.5268
2019-05-14T00:30:52.379Z,65.3254
2019-05-14T00:31:55.286Z,65.8991
2019-05-14T00:32:58.354Z,65.8259
2019-05-14T00:34:01.734Z,65.7649
2019-05-14T00:35:05.319Z,65.6916
2019-05-14T00:36:08.274Z,65.7008
2019-05-14T00:37:11.684Z,65.7664
2019-05-14T00:38:14.293Z,65.8244
2019-05-14T00:39:16.340Z,65.8122
2019-05-14T00:40:19.351Z,65.7298
2019-05-14T00:41:23.342Z,65.8564
2019-05-14T00:42:26.325Z,66.0487
2019-05-14T00:43:29.290Z,65.9068
2019-05-14T00:44:32.558Z,65.9480
2019-05-14T00:45:35.347Z,66.2242
2019-05-14T00:46:38.319Z,66.0914
2019-05-14T00:47:41.917Z,66.3386
2019-05-14T00:48:45.261Z,66.6911
2019-05-14T00:49:48.354Z,66.5385
2019-05-14T00:50:51.778Z,66.6392
2019-05-14T00:51:55.295Z,66.4759
2019-05-14T00:52:58.303Z,66.5446
2019-05-14T00:54:01.701Z,66.3233
2019-05-14T00:55:05.274Z,66.6438
2019-05-14T00:56:08.356Z,66.8605
2019-05-14T00:57:11.836Z,67.2084
2019-05-14T00:58:16.285Z,66.9917
2019-05-14T00:59:21.520Z,67.1153
2019-05-14T01:00:23.274Z,67.4861
2019-05-14T01:01:26.344Z,67.3411
2019-05-14T01:02:29.271Z,67.1519
2019-05-14T01:03:32.610Z,67.2404
2019-05-14T01:04:35.278Z,67.3442
2019-05-14T01:05:38.283Z,67.4235
2019-05-14T01:06:42.033Z,67.5013
2019-05-14T01:07:45.317Z,67.5090
2019-05-14T01:08:47.348Z,67.5090
2019-05-14T01:09:52.397Z,67.3686
2019-05-14T01:10:55.329Z,67.3350
2019-05-14T01:11:58.301Z,67.2663
2019-05-14T01:13:01.437Z,67.1748
2019-05-14T01:14:04.308Z,67.4647
2019-05-14T01:15:10.745Z,67.6661
2019-05-14T01:16:15.327Z,67.2526
2019-05-14T01:17:18.330Z,67.6188
2019-05-14T01:18:21.888Z,67.8080
2019-05-14T01:19:25.293Z,67.6570
2019-05-14T01:20:27.328Z,67.6204
2019-05-14T01:21:31.218Z,67.7287
2019-05-14T01:22:34.307Z,67.6020
2019-05-14T01:23:37.307Z,67.6753
2019-05-14T01:24:41.719Z,67.4052
2019-05-14T01:25:47.317Z,67.5425
2019-05-14T01:26:52.250Z,67.4311
2019-05-14T01:27:55.291Z,67.3365
2019-05-14T01:28:58.277Z,67.2129
2019-05-14T01:30:02.039Z,67.4449
2019-05-14T01:31:05.296Z,67.2038
2019-05-14T01:32:08.332Z,67.5013
2019-05-14T01:33:11.874Z,67.4037
2019-05-14T01:34:15.318Z,67.6188
2019-05-14T01:35:18.278Z,67.5471
2019-05-14T01:36:21.577Z,67.3503
2019-05-14T01:37:24.278Z,67.3899
2019-05-14T01:38:27.323Z,67.6478
2019-05-14T01:39:32.093Z,68.0186
2019-05-14T01:40:35.279Z,67.5837
2019-05-14T01:41:38.325Z,67.2938
2019-05-14T01:42:41.741Z,67.0420
2019-05-14T01:43:45.299Z,67.2999
2019-05-14T01:44:48.278Z,67.1107
2019-05-14T01:45:52.454Z,67.1534
2019-05-14T01:46:55.261Z,66.4378
2019-05-14T01:47:58.307Z,66.4027
2019-05-14T01:49:01.659Z,66.4652
2019-05-14T01:50:04.286Z,66.6392
2019-05-14T01:51:07.338Z,66.4897
2019-05-14T01:52:11.277Z,66.4576
2019-05-14T01:53:14.318Z,66.4668
2019-05-14T01:54:17.284Z,66.4973
2019-05-14T01:55:21.905Z,66.2181
2019-05-14T01:56:25.316Z,66.3706
2019-05-14T01:57:28.317Z,66.8315
2019-05-14T01:58:31.358Z,66.2547
2019-05-14T01:59:34.293Z,66.2699
2019-05-14T02:00:37.318Z,66.7491
2019-05-14T02:01:41.503Z,64.9592
2019-05-14T02:02:44.314Z,64.8829
2019-05-14T02:03:47.274Z,65.3071
2019-05-14T02:04:51.330Z,65.5650
2019-05-14T02:05:54.304Z,65.6611
2019-05-14T02:06:57.328Z,65.5192
2019-05-14T02:08:01.714Z,65.1301
2019-05-14T02:09:05.290Z,65.5558
2019-05-14T02:10:08.296Z,65.2995
2019-05-14T02:11:12.121Z,64.8539
2019-05-14T02:12:15.381Z,64.1550
2019-05-14T02:13:18.268Z,64.4114
2019-05-14T02:14:22.030Z,63.7369
2019-05-14T02:15:36.305Z,63.3433
2019-05-14T02:16:33.279Z,62.7207
2019-05-14T02:17:36.281Z,63.0198
2019-05-14T02:18:41.457Z,63.0747
2019-05-14T02:19:44.274Z,62.4018
2019-05-14T02:20:47.275Z,62.8321
2019-05-14T02:21:51.436Z,63.0152
2019-05-14T02:22:54.259Z,62.5971
2019-05-14T02:23:56.311Z,62.3285
2019-05-14T02:24:59.264Z,62.7436
2019-05-14T02:26:02.690Z,62.3880
2019-05-14T02:27:06.315Z,62.4231
2019-05-14T02:28:11.414Z,62.2858
2019-05-14T02:29:14.284Z,62.8595
2019-05-14T02:30:20.282Z,62.7619
2019-05-14T02:31:25.288Z,62.6261
2019-05-14T02:32:29.753Z,63.0701
2019-05-14T02:33:33.310Z,63.2944
2019-05-14T02:34:39.459Z,63.4501
2019-05-14T02:35:43.323Z,63.2853
2019-05-14T02:36:49.425Z,63.6637
2019-05-14T02:37:52.337Z,64.1169
2019-05-14T02:38:55.291Z,63.8163
2019-05-14T02:39:59.667Z,63.5355
2019-05-14T02:41:03.317Z,62.8229
2019-05-14T02:42:09.570Z,63.2212
2019-05-14T02:43:13.313Z,62.9099
2019-05-14T02:44:18.881Z,63.3173
2019-05-14T02:45:21.272Z,63.1922
2019-05-14T02:46:24.339Z,63.5996
2019-05-14T02:47:29.885Z,63.6606
2019-05-14T02:48:33.401Z,63.3158
2019-05-14T02:49:39.340Z,63.9521
2019-05-14T02:50:43.285Z,63.8346
2019-05-14T02:51:50.070Z,63.7049
2019-05-14T02:52:53.348Z,63.6332
2019-05-14T02:53:58.919Z,64.1398
2019-05-14T02:55:02.297Z,64.3290
2019-05-14T02:56:05.313Z,64.0131
2019-05-14T02:57:10.378Z,63.9490
2019-05-14T02:58:14.329Z,63.6881
2019-05-14T02:59:19.599Z,63.7934
2019-05-14T03:00:23.305Z,63.9719
2019-05-14T03:01:26.285Z,64.0116
2019-05-14T03:02:29.808Z,64.3244
2019-05-14T03:03:33.302Z,64.2542
2019-05-14T03:04:39.181Z,64.0131
2019-05-14T03:05:42.300Z,64.0772
2019-05-14T03:06:45.317Z,64.2237
2019-05-14T03:07:49.989Z,64.0391
2019-05-14T03:08:53.343Z,64.0391
2019-05-14T03:09:59.194Z,64.3153
2019-05-14T03:11:01.330Z,64.1459
2019-05-14T03:12:04.291Z,64.6342
2019-05-14T03:13:09.493Z,64.3427
2019-05-14T03:14:12.319Z,64.8493
2019-05-14T03:15:15.308Z,64.8142
2019-05-14T03:16:26.036Z,65.4078
2019-05-14T03:17:29.768Z,65.7481
2019-05-14T03:18:33.370Z,65.6367
2019-05-14T03:19:36.275Z,65.6092
2019-05-14T03:20:39.019Z,65.8244
2019-05-14T03:21:42.303Z,65.7511
2019-05-14T03:23:01.365Z,65.6046
2019-05-14T03:23:53.326Z,65.7710
2019-05-14T03:24:59.621Z,65.7282
2019-05-14T03:26:03.312Z,66.0121
2019-05-14T03:27:09.322Z,66.3005
2019-05-14T03:28:13.327Z,66.0670
2019-05-14T03:29:19.351Z,66.2913
2019-05-14T03:30:23.498Z,66.1677
2019-05-14T03:31:32.255Z,66.1768
2019-05-14T03:32:34.297Z,66.2593
2019-05-14T03:33:43.010Z,66.2593
2019-05-14T03:34:45.305Z,66.7414
2019-05-14T03:35:56.360Z,66.9139
2019-05-14T03:37:02.367Z,66.9871
2019-05-14T03:38:04.315Z,66.6453
2019-05-14T03:39:10.251Z,67.1794
2019-05-14T03:40:13.297Z,67.1336
2019-05-14T03:41:19.429Z,67.3899
2019-05-14T03:42:22.271Z,67.7699
2019-05-14T03:43:25.332Z,67.8904
2019-05-14T03:44:29.112Z,68.4520
2019-05-14T03:45:32.339Z,68.4855
2019-05-14T03:46:45.678Z,68.3604
2019-05-14T03:47:43.309Z,68.5847
2019-05-14T03:48:49.038Z,68.3696
2019-05-14T03:49:52.284Z,68.3650
2019-05-14T03:50:55.313Z,68.7633
2019-05-14T03:52:00.452Z,68.3024
2019-05-14T03:53:03.318Z,68.5496
2019-05-14T03:54:11.390Z,69.0379
2019-05-14T03:55:14.281Z,69.3355
2019-05-14T03:56:19.237Z,69.4057
2019-05-14T03:57:22.286Z,69.5048
2019-05-14T03:58:25.298Z,69.8497
2019-05-14T03:59:29.307Z,69.7169
2019-05-14T04:00:32.290Z,69.3126
2019-05-14T04:01:35.275Z,69.4102
2019-05-14T04:02:39.116Z,69.5247
2019-05-14T04:03:42.313Z,69.5918
2019-05-14T04:04:45.308Z,69.9229
2019-05-14T04:05:49.382Z,70.2159
2019-05-14T04:06:52.305Z,70.5043
2019-05-14T04:07:55.307Z,70.6126
2019-05-14T04:09:00.626Z,70.6081
2019-05-14T04:10:04.287Z,70.6996
2019-05-14T04:11:09.624Z,70.6737
2019-05-14T04:12:13.297Z,70.4036
2019-05-14T04:13:19.585Z,70.5684
2019-05-14T04:14:23.296Z,70.5592
2019-05-14T04:15:29.643Z,71.2047
2019-05-14T04:16:33.332Z,70.7698
2019-05-14T04:17:38.783Z,71.2230
2019-05-14T04:18:44.326Z,70.7591
2019-05-14T04:19:49.270Z,70.7088
2019-05-14T04:20:52.300Z,70.8598
2019-05-14T04:21:55.313Z,70.9056
2019-05-14T04:23:00.006Z,70.8751
2019-05-14T04:24:03.330Z,70.6905
2019-05-14T04:25:06.300Z,70.8659
2019-05-14T04:26:09.584Z,70.8919
2019-05-14T04:27:13.126Z,70.7729
2019-05-14T04:28:19.288Z,71.1406
2019-05-14T04:29:22.291Z,71.2139
2019-05-14T04:30:25.327Z,70.9941
2019-05-14T04:31:29.831Z,70.9392
2019-05-14T04:32:33.413Z,71.3542
2019-05-14T04:33:39.051Z,71.0018
2019-05-14T04:34:41.305Z,71.2398
2019-05-14T04:35:44.274Z,71.2001
2019-05-14T04:36:50.076Z,71.1543
2019-05-14T04:37:53.287Z,71.1437
2019-05-14T04:38:56.299Z,71.2367
2019-05-14T04:39:59.470Z,70.9056
2019-05-14T04:41:02.312Z,71.0750
2019-05-14T04:42:05.310Z,71.5297
2019-05-14T04:43:10.153Z,71.4092
2019-05-14T04:44:13.331Z,71.2459
2019-05-14T04:45:19.414Z,71.4565
2019-05-14T04:46:22.289Z,71.4916
2019-05-14T04:47:31.862Z,71.1345
2019-05-14T04:48:37.596Z,71.4046
2019-05-14T04:49:41.378Z,71.3466
2019-05-14T04:50:44.292Z,71.1727
2019-05-14T04:51:50.180Z,71.1772
2019-05-14T04:52:53.281Z,71.4519
2019-05-14T04:53:59.613Z,71.5419
2019-05-14T04:55:03.324Z,71.4687
2019-05-14T04:56:08.732Z,71.5709
2019-05-14T04:57:12.296Z,71.5801
2019-05-14T04:58:15.322Z,71.1315
2019-05-14T04:59:19.135Z,70.9148
2019-05-14T05:00:22.299Z,71.1162
2019-05-14T05:01:25.359Z,71.1482
2019-05-14T05:02:30.110Z,71.1635
2019-05-14T05:03:33.286Z,71.4061
2019-05-14T05:04:36.301Z,70.8843
2019-05-14T05:05:39.531Z,71.0979
2019-05-14T05:06:42.318Z,70.6645
2019-05-14T05:07:45.326Z,70.5852
2019-05-14T05:08:49.806Z,70.7683
2019-05-14T05:09:53.319Z,70.7790
2019-05-14T05:10:59.658Z,70.3120
2019-05-14T05:12:03.317Z,70.2327
2019-05-14T05:13:09.031Z,70.1503
2019-05-14T05:14:12.308Z,69.3690
2019-05-14T05:15:14.329Z,69.6345
2019-05-14T05:16:19.224Z,69.5186
2019-05-14T05:17:38.920Z,69.6422
2019-05-14T05:18:32.302Z,69.4041
2019-05-14T05:19:35.354Z,69.0791
2019-05-14T05:20:39.444Z,69.7246
2019-05-14T05:21:42.287Z,69.1127
2019-05-14T05:22:45.299Z,69.0150
2019-05-14T05:23:49.221Z,68.9982
2019-05-14T05:24:52.361Z,69.3400
2019-05-14T05:25:55.299Z,69.2271
2019-05-14T05:26:58.619Z,69.2912
2019-05-14T05:28:01.303Z,69.4224
2019-05-14T05:29:07.208Z,69.3172
2019-05-14T05:30:12.339Z,69.4286
2019-05-14T05:31:15.305Z,68.7327
2019-05-14T05:32:19.412Z,68.5863
2019-05-14T05:33:23.305Z,69.1035
2019-05-14T05:34:28.288Z,68.5847
2019-05-14T05:35:31.311Z,68.3436
2019-05-14T05:36:34.300Z,68.2185
2019-05-14T05:37:38.447Z,67.7623
2019-05-14T05:38:42.310Z,67.3854
2019-05-14T05:39:45.308Z,67.5639
2019-05-14T05:40:48.685Z,67.3854
2019-05-14T05:41:51.311Z,67.5746
2019-05-14T05:42:54.300Z,67.2816
2019-05-14T05:43:58.915Z,66.9749
2019-05-14T05:45:02.303Z,66.8376
2019-05-14T05:46:05.329Z,66.9001
2019-05-14T05:47:09.269Z,67.0161
2019-05-14T05:48:12.303Z,66.9017
2019-05-14T05:49:15.288Z,66.9245
2019-05-14T05:50:19.379Z,66.7414
2019-05-14T05:51:23.332Z,66.4897
2019-05-14T05:52:28.239Z,66.5171
2019-05-14T05:53:31.275Z,66.1738
2019-05-14T05:54:34.291Z,65.8335
2019-05-14T05:55:39.275Z,65.7740
2019-05-14T05:56:42.358Z,66.0868
2019-05-14T05:57:45.334Z,65.8335
2019-05-14T05:58:48.952Z,65.4826
2019-05-14T05:59:52.309Z,65.3025
2019-05-14T06:00:55.287Z,65.4230
2019-05-14T06:01:58.800Z,65.5909
2019-05-14T06:03:02.310Z,65.4353
2019-05-14T06:04:05.295Z,65.3300
2019-05-14T06:05:08.334Z,65.1850
2019-05-14T06:06:13.388Z,64.6983
2019-05-14T06:07:18.392Z,65.1255
2019-05-14T06:08:21.304Z,64.7639
2019-05-14T06:09:24.334Z,65.4368
2019-05-14T06:10:29.179Z,64.6265
2019-05-14T06:11:32.322Z,65.0019
2019-05-14T06:12:34.339Z,64.9088
2019-05-14T06:13:39.016Z,65.2583
2019-05-14T06:14:42.281Z,64.8722
2019-05-14T06:15:48.818Z,64.1352
2019-05-14T06:16:53.321Z,64.1459
2019-05-14T06:18:13.359Z,64.1505
2019-05-14T06:19:08.201Z,64.7120
2019-05-14T06:20:11.292Z,64.1276
2019-05-14T06:21:14.303Z,63.9887
2019-05-14T06:22:18.924Z,64.3320
2019-05-14T06:23:22.351Z,64.2084
2019-05-14T06:24:25.319Z,64.1398
2019-05-14T06:25:31.336Z,63.8117
2019-05-14T06:26:34.317Z,63.9399
2019-05-14T06:27:38.070Z,63.7644
2019-05-14T06:28:41.141Z,63.6881
2019-05-14T06:29:44.278Z,63.3982
2019-05-14T06:30:48.413Z,63.3982
2019-05-14T06:31:51.292Z,63.3844
2019-05-14T06:32:54.351Z,63.4821
2019-05-14T06:33:59.109Z,63.5813
2019-05-14T06:35:02.333Z,63.7140
2019-05-14T06:36:08.716Z,64.0436
2019-05-14T06:37:12.336Z,63.7781
2019-05-14T06:38:15.314Z,64.0085
2019-05-14T06:39:18.419Z,63.9567
2019-05-14T06:40:21.344Z,64.0452
2019-05-14T06:41:24.294Z,63.5325
2019-05-14T06:42:28.507Z,61.7090
2019-05-14T06:43:32.350Z,62.2629
2019-05-14T06:44:35.305Z,61.9944
2019-05-14T06:45:39.143Z,61.9211
2019-05-14T06:46:43.356Z,61.5305
2019-05-14T06:47:48.621Z,61.2436
2019-05-14T06:48:52.362Z,62.0722
2019-05-14T06:49:55.303Z,61.9608
2019-05-14T06:50:58.536Z,62.3377
2019-05-14T06:52:01.312Z,60.9354
2019-05-14T06:53:04.295Z,61.3809
2019-05-14T06:54:09.206Z,61.3123
2019-05-14T06:55:12.295Z,60.7294
2019-05-14T06:56:18.802Z,60.1617
2019-05-14T06:57:23.278Z,60.8087
2019-05-14T06:58:26.304Z,60.6287
2019-05-14T06:59:29.357Z,59.9069
2019-05-14T07:00:31.348Z,60.0107
2019-05-14T07:01:34.317Z,60.0198
2019-05-14T07:02:43.240Z,59.5224
2019-05-14T07:03:45.337Z,59.5178
2019-05-14T07:04:48.541Z,59.8108
2019-05-14T07:05:51.319Z,59.3713
2019-05-14T07:06:54.298Z,59.9786
2019-05-14T07:07:59.704Z,60.6851
2019-05-14T07:09:03.300Z,60.3098
2019-05-14T07:10:08.739Z,59.5026
2019-05-14T07:11:12.252Z,59.3484
2019-05-14T07:12:15.331Z,60.3601
2019-05-14T07:13:18.939Z,60.6256
2019-05-14T07:14:21.302Z,60.8804
2019-05-14T07:15:24.336Z,59.2920
2019-05-14T07:16:28.682Z,58.6572
2019-05-14T07:17:32.302Z,59.2279
2019-05-14T07:18:46.398Z,59.9207
2019-05-14T07:19:43.351Z,59.0463
2019-05-14T07:20:48.359Z,58.6938
2019-05-14T07:21:51.314Z,58.5199
2019-05-14T07:22:54.308Z,58.5595
2019-05-14T07:23:56.317Z,57.9507
2019-05-14T07:24:59.328Z,59.0143
2019-05-14T07:26:02.292Z,58.9685
2019-05-14T07:27:05.324Z,57.9980
2019-05-14T07:28:08.860Z,57.3602
2019-05-14T07:29:12.312Z,58.5977
2019-05-14T07:30:15.323Z,57.7905
2019-05-14T07:31:18.793Z,57.9644
2019-05-14T07:32:22.284Z,57.9110
2019-05-14T07:33:25.510Z,57.7096
2019-05-14T07:34:28.440Z,58.7350
2019-05-14T07:35:31.327Z,59.3896
2019-05-14T07:36:34.339Z,57.2503
2019-05-14T07:37:39.703Z,58.2635
2019-05-14T07:38:43.327Z,57.8134
2019-05-14T07:39:48.506Z,58.5473
2019-05-14T07:40:52.343Z,58.1292
2019-05-14T07:41:55.282Z,58.3947
2019-05-14T07:42:58.430Z,56.7529
2019-05-14T07:44:01.297Z,54.8196
2019-05-14T07:45:04.300Z,55.3018
2019-05-14T07:46:08.515Z,55.9792
2019-05-14T07:47:12.319Z,54.8440
2019-05-14T07:48:15.318Z,54.6365
2019-05-14T07:49:18.567Z,55.7397
2019-05-14T07:50:21.362Z,55.4894
2019-05-14T07:51:24.303Z,55.0896
2019-05-14T07:52:28.517Z,54.5327
2019-05-14T07:53:38.793Z,54.6151
2019-05-14T07:54:40.299Z,55.1278
2019-05-14T07:55:43.360Z,55.4376
2019-05-14T07:56:49.075Z,55.5627
2019-05-14T07:57:54.294Z,56.1059
2019-05-14T07:58:58.468Z,56.3943
2019-05-14T08:00:03.328Z,56.3119
2019-05-14T08:01:06.325Z,54.9996
2019-05-14T08:02:09.517Z,54.1192
2019-05-14T08:03:12.291Z,54.5678
2019-05-14T08:04:17.217Z,53.3379
2019-05-14T08:05:22.310Z,54.4640
2019-05-14T08:06:24.388Z,54.7509
2019-05-14T08:07:28.180Z,54.2260
2019-05-14T08:08:31.291Z,54.4549
2019-05-14T08:09:34.300Z,54.8653
2019-05-14T08:10:36.328Z,54.8379
2019-05-14T08:11:38.865Z,53.3654
2019-05-14T08:12:42.325Z,52.4437
2019-05-14T08:13:45.345Z,51.7815
2019-05-14T08:15:09.032Z,52.4727
2019-05-14T08:15:55.323Z,52.2835
2019-05-14T08:16:59.554Z,51.5785
2019-05-14T08:18:03.293Z,52.0333
2019-05-14T08:19:20.885Z,52.3339
2019-05-14T08:20:14.337Z,51.8547
2019-05-14T08:21:19.351Z,52.1096
2019-05-14T08:22:23.337Z,52.1843
2019-05-14T08:23:28.207Z,51.2413
2019-05-14T08:24:31.286Z,51.9585
2019-05-14T08:25:34.315Z,51.4458
2019-05-14T08:26:38.181Z,52.6864
2019-05-14T08:27:41.367Z,52.5277
2019-05-14T08:28:44.284Z,52.0562
2019-05-14T08:29:48.703Z,52.2469
2019-05-14T08:30:52.302Z,52.1599
2019-05-14T08:31:55.337Z,51.9127
2019-05-14T08:32:58.419Z,51.2169
2019-05-14T08:34:04.633Z,52.6223
2019-05-14T08:35:09.082Z,51.2139
2019-05-14T08:36:12.295Z,50.7774
2019-05-14T08:37:15.292Z,50.8049
2019-05-14T08:38:18.539Z,50.8003
2019-05-14T08:39:22.258Z,51.0246
2019-05-14T08:40:25.324Z,51.0246
2019-05-14T08:41:28.780Z,48.5954
2019-05-14T08:42:34.062Z,48.2155
2019-05-14T08:43:39.791Z,48.9250
2019-05-14T08:44:47.937Z,50.1823
2019-05-14T08:45:53.312Z,50.8614
2019-05-14T08:46:58.436Z,47.9271
2019-05-14T08:48:02.317Z,48.3848
2019-05-14T08:49:05.340Z,48.4932
2019-05-14T08:50:09.116Z,48.8838
2019-05-14T08:51:12.393Z,50.2098
2019-05-14T08:52:18.969Z,50.4158
2019-05-14T08:53:22.334Z,49.1859
2019-05-14T08:54:25.335Z,49.5979
2019-05-14T08:55:29.666Z,48.1376
2019-05-14T08:56:33.305Z,46.6026
2019-05-14T08:57:38.611Z,47.8538
2019-05-14T08:58:42.323Z,47.3579
2019-05-14T08:59:45.337Z,46.7964
2019-05-14T09:00:48.479Z,49.4835
2019-05-14T09:02:01.792Z,47.4784
2019-05-14T09:02:59.327Z,47.2618
2019-05-14T09:04:02.305Z,46.4195
2019-05-14T09:05:05.502Z,46.5537
2019-05-14T09:06:10.367Z,45.6840
2019-05-14T09:07:13.341Z,45.4414
2019-05-14T09:08:18.957Z,42.4918
2019-05-14T09:09:22.325Z,42.1683
2019-05-14T09:10:25.366Z,40.8804
2019-05-14T09:11:35.026Z,42.3377
2019-05-14T09:12:38.617Z,41.2757
2019-05-14T09:13:42.355Z,41.7746
2019-05-14T09:14:45.324Z,41.6678
2019-05-14T09:15:48.928Z,42.8580
2019-05-14T09:16:52.358Z,42.2004
2019-05-14T09:17:55.314Z,40.9995
2019-05-14T09:18:58.278Z,41.9379
2019-05-14T09:20:06.735Z,39.2798
2019-05-14T09:21:09.296Z,40.0717
2019-05-14T09:22:12.373Z,41.2650
2019-05-14T09:23:15.296Z,40.3326
2019-05-14T09:24:18.377Z,40.1999
2019-05-14T09:25:21.292Z,39.4034
2019-05-14T09:26:24.325Z,40.6561
2019-05-14T09:27:29.246Z,40.4181
2019-05-14T09:28:32.303Z,41.2604
2019-05-14T09:29:35.335Z,40.8225
2019-05-14T09:30:38.333Z,40.6012
2019-05-14T09:31:41.342Z,41.6007
2019-05-14T09:32:44.354Z,38.6007
2019-05-14T09:33:49.480Z,39.0082
2019-05-14T09:34:52.322Z,38.7793
2019-05-14T09:36:09.554Z,40.2258
2019-05-14T09:37:03.354Z,40.4913
2019-05-14T09:38:08.510Z,40.3098
2019-05-14T09:39:12.257Z,40.2396
2019-05-14T09:40:14.381Z,39.5438
2019-05-14T09:41:18.549Z,38.8479
2019-05-14T09:42:21.286Z,38.6053
2019-05-14T09:43:24.346Z,39.6323
2019-05-14T09:44:29.317Z,38.1704
2019-05-14T09:45:32.319Z,39.0280
2019-05-14T09:46:35.351Z,37.5265
2019-05-14T09:47:38.736Z,37.3465
2019-05-14T09:48:42.279Z,36.4935
2019-05-14T09:49:45.310Z,38.3444
2019-05-14T09:50:48.977Z,37.2595
2019-05-14T09:51:52.318Z,37.1206
2019-05-14T09:52:55.336Z,38.5367
2019-05-14T09:53:58.926Z,35.7534
2019-05-14T09:55:02.339Z,37.4365
2019-05-14T09:56:05.359Z,37.1359
2019-05-14T09:57:08.495Z,36.8887
2019-05-14T09:58:11.311Z,39.7559
2019-05-14T09:59:14.316Z,38.0514
2019-05-14T10:00:18.683Z,37.5570
2019-05-14T10:01:22.355Z,37.8195
2019-05-14T10:02:25.316Z,37.1664
2019-05-14T10:03:27.312Z,37.5006
2019-05-14T10:04:30.361Z,38.4405
2019-05-14T10:05:33.274Z,35.3048
2019-05-14T10:06:39.015Z,36.5255
2019-05-14T10:07:42.291Z,35.8618
2019-05-14T10:08:45.321Z,35.6649
2019-05-14T10:09:49.184Z,35.6283
2019-05-14T10:10:52.310Z,36.5957
2019-05-14T10:11:55.337Z,34.3069
2019-05-14T10:13:01.350Z,34.8974
2019-05-14T10:14:05.328Z,35.2941
2019-05-14T10:15:08.843Z,34.1878
2019-05-14T10:16:12.320Z,33.6980
2019-05-14T10:17:15.358Z,35.0393
2019-05-14T10:18:19.039Z,33.4966
2019-05-14T10:19:22.314Z,32.3064
2019-05-14T10:20:40.238Z,32.5673
2019-05-14T10:21:33.311Z,34.0963
2019-05-14T10:22:36.369Z,32.4437
2019-05-14T10:23:39.280Z,32.7398
2019-05-14T10:24:42.317Z,35.1080
2019-05-14T10:25:45.346Z,33.6248
2019-05-14T10:26:49.156Z,32.1859
2019-05-14T10:27:52.367Z,32.6863
2019-05-14T10:28:54.307Z,33.4005
2019-05-14T10:29:58.859Z,33.7102
2019-05-14T10:31:03.808Z,33.9712
2019-05-14T10:32:08.737Z,33.4401
2019-05-14T10:33:15.082Z,34.1558
2019-05-14T10:34:19.228Z,35.1980
2019-05-14T10:35:22.301Z,35.6069
2019-05-14T10:36:25.283Z,35.9167
2019-05-14T10:37:28.792Z,36.6735
2019-05-14T10:38:32.329Z,36.8139
2019-05-14T10:39:35.352Z,35.2346
2019-05-14T10:40:38.701Z,35.8572
2019-05-14T10:41:42.335Z,35.4284
2019-05-14T10:42:44.358Z,36.2921
2019-05-14T10:43:49.736Z,36.5393
2019-05-14T10:44:53.285Z,35.1492
2019-05-14T10:45:58.001Z,35.7351
2019-05-14T10:47:01.322Z,37.3358
2019-05-14T10:48:04.351Z,36.9238
2019-05-14T10:49:19.996Z,36.7056
2019-05-14T10:50:15.331Z,34.6273
2019-05-14T10:51:18.354Z,35.3170
2019-05-14T10:52:23.313Z,34.5846
2019-05-14T10:53:25.377Z,36.5118
2019-05-14T10:54:29.268Z,36.2463
2019-05-14T10:55:32.317Z,35.5474
2019-05-14T10:56:35.278Z,36.8505
2019-05-14T10:57:38.305Z,35.7305
2019-05-14T10:58:41.348Z,34.9798
2019-05-14T10:59:44.300Z,35.5230
2019-05-14T11:00:49.309Z,35.2255
2019-05-14T11:01:54.352Z,34.4305
2019-05-14T11:02:57.329Z,35.5413
2019-05-14T11:04:00.314Z,34.3557
2019-05-14T11:05:03.301Z,33.2265
2019-05-14T11:06:06.333Z,33.1655
2019-05-14T11:07:09.314Z,33.9040
2019-05-14T11:08:12.314Z,34.8791
2019-05-14T11:09:15.304Z,35.5108
2019-05-14T11:10:19.523Z,37.0214
2019-05-14T11:11:22.286Z,36.0174
2019-05-14T11:12:25.357Z,36.4981
2019-05-14T11:13:29.242Z,35.7794
2019-05-14T11:14:32.362Z,36.3943
2019-05-14T11:15:35.336Z,35.7565
2019-05-14T11:16:41.790Z,35.5108
2019-05-14T11:17:45.267Z,34.8424
2019-05-14T11:18:49.744Z,35.9854
2019-05-14T11:19:53.361Z,35.4772
2019-05-14T11:21:16.171Z,36.4797
2019-05-14T11:22:04.318Z,36.7636
2019-05-14T11:23:08.979Z,35.7031
2019-05-14T11:24:12.329Z,35.5550
2019-05-14T11:25:15.313Z,36.6491
2019-05-14T11:26:18.427Z,35.5383
2019-05-14T11:27:22.297Z,36.0098
2019-05-14T11:28:25.267Z,34.9142
2019-05-14T11:29:29.580Z,35.6069
2019-05-14T11:30:33.315Z,36.6171
2019-05-14T11:31:38.872Z,35.8434
2019-05-14T11:32:42.321Z,35.2132
2019-05-14T11:33:45.306Z,34.1772
2019-05-14T11:34:48.341Z,35.3445
2019-05-14T11:35:51.306Z,34.9432
2019-05-14T11:36:54.324Z,35.1995
2019-05-14T11:37:58.866Z,35.9396
2019-05-14T11:39:04.018Z,35.3719
2019-05-14T11:40:08.743Z,34.9920
2019-05-14T11:41:12.337Z,36.3943
2019-05-14T11:42:15.306Z,35.8251
2019-05-14T11:43:18.341Z,35.0713
2019-05-14T11:44:21.301Z,35.5184
2019-05-14T11:45:23.305Z,36.9482
2019-05-14T11:46:39.977Z,34.9981
2019-05-14T11:47:34.319Z,36.4904
2019-05-14T11:48:38.948Z,37.2091
2019-05-14T11:49:42.349Z,38.8998
2019-05-14T11:50:45.324Z,36.3348
2019-05-14T11:52:00.722Z,37.1725
2019-05-14T11:52:58.331Z,37.3922
2019-05-14T11:54:01.285Z,36.9970
2019-05-14T11:55:04.334Z,36.2509
2019-05-14T11:56:08.629Z,37.4380
2019-05-14T11:57:12.307Z,36.2097
2019-05-14T11:58:15.379Z,36.6125
2019-05-14T11:59:18.969Z,35.3368
2019-05-14T12:00:25.719Z,35.5474
2019-05-14T12:01:29.787Z,35.3490
2019-05-14T12:02:33.267Z,36.9848
2019-05-14T12:03:39.043Z,34.7860
2019-05-14T12:04:42.317Z,35.6741
2019-05-14T12:05:45.279Z,36.6415
2019-05-14T12:06:48.288Z,34.3877
2019-05-14T12:07:51.290Z,35.6252
2019-05-14T12:08:54.298Z,35.6786
2019-05-14T12:09:57.346Z,33.9300
2019-05-14T12:11:00.332Z,34.3069
2019-05-14T12:12:03.279Z,33.7575
2019-05-14T12:13:08.402Z,35.6435
2019-05-14T12:14:12.340Z,33.5286
2019-05-14T12:15:15.297Z,35.3628
2019-05-14T12:16:18.328Z,34.6319
2019-05-14T12:17:21.388Z,35.8160
2019-05-14T12:18:24.298Z,36.0723
2019-05-14T12:19:28.371Z,35.8358
2019-05-14T12:20:31.352Z,36.6781
2019-05-14T12:21:34.308Z,35.6573
2019-05-14T12:22:39.356Z,34.1772
2019-05-14T12:23:42.323Z,35.4726
2019-05-14T12:24:45.336Z,35.5474
2019-05-14T12:25:49.063Z,35.2453
2019-05-14T12:26:52.290Z,36.3485
2019-05-14T12:27:55.309Z,36.6140
2019-05-14T12:28:59.409Z,33.5729
2019-05-14T12:30:01.338Z,34.9050
2019-05-14T12:31:04.303Z,32.8832
2019-05-14T12:32:12.804Z,33.9361
2019-05-14T12:33:15.311Z,35.3994
2019-05-14T12:34:18.595Z,33.9315
2019-05-14T12:35:21.316Z,34.5525
2019-05-14T12:36:24.308Z,34.8180
2019-05-14T12:37:28.941Z,34.8837
2019-05-14T12:38:32.266Z,36.3287
2019-05-14T12:39:35.252Z,37.6211
2019-05-14T12:40:38.435Z,37.5387
2019-05-14T12:41:41.293Z,37.8637
2019-05-14T12:42:44.299Z,37.2396
2019-05-14T12:43:47.330Z,37.6120
2019-05-14T12:44:50.315Z,38.1262
2019-05-14T12:45:53.361Z,37.8866
2019-05-14T12:46:58.592Z,37.7127
2019-05-14T12:48:02.309Z,36.6461
2019-05-14T12:49:05.315Z,33.3120
2019-05-14T12:50:09.367Z,34.4198
2019-05-14T12:51:12.346Z,33.1884